sensor_id;sensor_type;location;lat;lon;timestamp;temperature;humidity
22132;DHT22;11232;51.748;19.390;2022-11-15T00:00:18;6.10;99.90
22132;DHT22;11232;51.748;19.390;2022-11-15T00:02:43;5.10;99.90
22132;DHT22;11232;51.748;19.390;2022-11-15T00:05:09;5.10;99.90
22132;DHT22;11232;51.748;19.390;2022-11-15T00:07:34;5.10;99.90
22132;DHT22;11232;51.748;19.390;2022-11-15T00:10:00;5.10;99.90
22132;DHT22;11232;51.748;19.390;2022-11-15T00:12:27;5.10;99.90
22132;DHT22;11232;51.748;19.390;2022-11-15T00:14:53;5.20;99.90
22132;DHT22;11232;51.748;19.390;2022-11-15T00:17:19;5.60;99.90
22132;DHT22;11232;51.748;19.390;2022-11-15T00:19:44;5.20;99.90
22132;DHT22;11232;51.748;19.390;2022-11-15T00:22:10;4.90;99.90
22132;DHT22;11232;51.748;19.390;2022-11-15T00:24:36;5.10;99.90
22132;DHT22;11232;51.748;19.390;2022-11-15T00:27:01;5.10;99.90
22132;DHT22;11232;51.748;19.390;2022-11-15T00:29:27;5.30;99.90
22132;DHT22;11232;51.748;19.390;2022-11-15T00:31:53;5.10;99.90
22132;DHT22;11232;51.748;19.390;2022-11-15T00:34:18;5.00;99.90
22132;DHT22;11232;51.748;19.390;2022-11-15T00:36:44;5.10;99.90
22132;DHT22;11232;51.748;19.390;2022-11-15T00:39:10;5.10;99.90
22132;DHT22;11232;51.748;19.390;2022-11-15T00:41:35;6.30;99.90
22132;DHT22;11232;51.748;19.390;2022-11-15T00:44:01;5.90;99.90
22132;DHT22;11232;51.748;19.390;2022-11-15T00:46:26;5.00;99.90
22132;DHT22;11232;51.748;19.390;2022-11-15T00:48:52;5.10;99.90
22132;DHT22;11232;51.748;19.390;2022-11-15T00:51:18;6.30;99.90
22132;DHT22;11232;51.748;19.390;2022-11-15T00:56:56;5.10;99.90
22132;DHT22;11232;51.748;19.390;2022-11-15T00:59:21;5.00;99.90
22132;DHT22;11232;51.748;19.390;2022-11-15T01:01:47;5.00;99.90
22132;DHT22;11232;51.748;19.390;2022-11-15T01:04:13;5.00;99.90
22132;DHT22;11232;51.748;19.390;2022-11-15T01:06:39;5.10;99.90
22132;DHT22;11232;51.748;19.390;2022-11-15T01:09:04;5.00;99.90
22132;DHT22;11232;51.748;19.390;2022-11-15T01:11:30;5.00;99.90
22132;DHT22;11232;51.748;19.390;2022-11-15T01:13:56;5.00;99.90
22132;DHT22;11232;51.748;19.390;2022-11-15T01:16:21;5.00;99.90
22132;DHT22;11232;51.748;19.390;2022-11-15T01:18:47;5.00;99.90
22132;DHT22;11232;51.748;19.390;2022-11-15T01:21:16;5.00;99.90
22132;DHT22;11232;51.748;19.390;2022-11-15T01:23:42;5.00;99.90
22132;DHT22;11232;51.748;19.390;2022-11-15T01:26:11;5.00;99.90
22132;DHT22;11232;51.748;19.390;2022-11-15T01:28:38;5.00;99.90
22132;DHT22;11232;51.748;19.390;2022-11-15T01:31:07;5.00;99.90
22132;DHT22;11232;51.748;19.390;2022-11-15T01:33:35;5.00;99.90
22132;DHT22;11232;51.748;19.390;2022-11-15T01:36:06;5.10;99.90
22132;DHT22;11232;51.748;19.390;2022-11-15T01:38:33;5.00;99.90
22132;DHT22;11232;51.748;19.390;2022-11-15T01:40:58;5.00;99.90
22132;DHT22;11232;51.748;19.390;2022-11-15T01:43:35;5.80;99.90
22132;DHT22;11232;51.748;19.390;2022-11-15T01:48:50;5.00;99.90
22132;DHT22;11232;51.748;19.390;2022-11-15T01:51:18;4.90;99.90
22132;DHT22;11232;51.748;19.390;2022-11-15T01:53:47;4.90;99.90
22132;DHT22;11232;51.748;19.390;2022-11-15T01:56:18;4.90;99.90
22132;DHT22;11232;51.748;19.390;2022-11-15T01:58:45;5.00;99.90
22132;DHT22;11232;51.748;19.390;2022-11-15T02:01:12;4.90;99.90
22132;DHT22;11232;51.748;19.390;2022-11-15T02:04:04;4.90;99.90
22132;DHT22;11232;51.748;19.390;2022-11-15T02:06:31;5.10;99.90
22132;DHT22;11232;51.748;19.390;2022-11-15T02:08:57;5.00;99.90
22132;DHT22;11232;51.748;19.390;2022-11-15T02:11:24;4.90;99.90
22132;DHT22;11232;51.748;19.390;2022-11-15T02:13:49;5.30;99.90
22132;DHT22;11232;51.748;19.390;2022-11-15T02:16:42;4.90;99.90
22132;DHT22;11232;51.748;19.390;2022-11-15T02:22:12;5.60;99.90
22132;DHT22;11232;51.748;19.390;2022-11-15T02:33:38;4.90;99.90
22132;DHT22;11232;51.748;19.390;2022-11-15T02:39:05;5.00;99.90
22132;DHT22;11232;51.748;19.390;2022-11-15T02:41:39;5.00;99.90
22132;DHT22;11232;51.748;19.390;2022-11-15T02:44:26;4.80;99.90
22132;DHT22;11232;51.748;19.390;2022-11-15T02:46:58;4.80;99.90
22132;DHT22;11232;51.748;19.390;2022-11-15T02:49:47;4.90;99.90
22132;DHT22;11232;51.748;19.390;2022-11-15T02:52:21;4.80;99.90
22132;DHT22;11232;51.748;19.390;2022-11-15T02:54:58;4.80;99.90
22132;DHT22;11232;51.748;19.390;2022-11-15T02:57:45;4.70;99.90
22132;DHT22;11232;51.748;19.390;2022-11-15T03:00:18;4.70;99.90
22132;DHT22;11232;51.748;19.390;2022-11-15T03:03:16;4.80;99.90
22132;DHT22;11232;51.748;19.390;2022-11-15T03:06:35;4.80;99.90
22132;DHT22;11232;51.748;19.390;2022-11-15T03:09:01;4.70;99.90
22132;DHT22;11232;51.748;19.390;2022-11-15T03:11:29;4.70;99.90
22132;DHT22;11232;51.748;19.390;2022-11-15T03:19:35;4.80;99.90
22132;DHT22;11232;51.748;19.390;2022-11-15T03:22:07;4.80;99.90
22132;DHT22;11232;51.748;19.390;2022-11-15T03:24:36;5.60;99.90
22132;DHT22;11232;51.748;19.390;2022-11-15T03:27:05;5.30;99.90
22132;DHT22;11232;51.748;19.390;2022-11-15T03:29:36;4.80;99.90
22132;DHT22;11232;51.748;19.390;2022-11-15T03:32:19;4.80;99.90
22132;DHT22;11232;51.748;19.390;2022-11-15T03:35:07;4.80;99.90
22132;DHT22;11232;51.748;19.390;2022-11-15T03:40:06;4.70;99.90
22132;DHT22;11232;51.748;19.390;2022-11-15T03:42:41;4.70;99.90
22132;DHT22;11232;51.748;19.390;2022-11-15T03:45:15;4.70;99.90
22132;DHT22;11232;51.748;19.390;2022-11-15T03:47:53;4.90;99.90
22132;DHT22;11232;51.748;19.390;2022-11-15T03:50:21;4.70;99.90
22132;DHT22;11232;51.748;19.390;2022-11-15T03:52:48;4.70;99.90
22132;DHT22;11232;51.748;19.390;2022-11-15T03:55:19;4.70;99.90
22132;DHT22;11232;51.748;19.390;2022-11-15T03:57:48;4.70;99.90
22132;DHT22;11232;51.748;19.390;2022-11-15T04:00:15;4.70;99.90
22132;DHT22;11232;51.748;19.390;2022-11-15T04:02:40;4.70;99.90
22132;DHT22;11232;51.748;19.390;2022-11-15T04:05:06;4.80;99.90
22132;DHT22;11232;51.748;19.390;2022-11-15T04:07:32;4.70;99.90
22132;DHT22;11232;51.748;19.390;2022-11-15T04:09:58;4.70;99.90
22132;DHT22;11232;51.748;19.390;2022-11-15T04:12:32;4.70;99.90
22132;DHT22;11232;51.748;19.390;2022-11-15T04:15:06;4.70;99.90
22132;DHT22;11232;51.748;19.390;2022-11-15T04:17:37;4.70;99.90
22132;DHT22;11232;51.748;19.390;2022-11-15T04:20:12;4.70;99.90
22132;DHT22;11232;51.748;19.390;2022-11-15T04:22:58;4.70;99.90
22132;DHT22;11232;51.748;19.390;2022-11-15T04:25:43;4.70;99.90
22132;DHT22;11232;51.748;19.390;2022-11-15T04:28:10;4.90;99.90
22132;DHT22;11232;51.748;19.390;2022-11-15T04:30:35;5.60;99.90
22132;DHT22;11232;51.748;19.390;2022-11-15T04:33:01;4.70;99.90
22132;DHT22;11232;51.748;19.390;2022-11-15T04:35:27;4.60;99.90
22132;DHT22;11232;51.748;19.390;2022-11-15T04:37:54;4.70;99.90
22132;DHT22;11232;51.748;19.390;2022-11-15T04:40:20;4.70;99.90
22132;DHT22;11232;51.748;19.390;2022-11-15T04:42:45;4.70;99.90
22132;DHT22;11232;51.748;19.390;2022-11-15T04:45:11;4.60;99.90
22132;DHT22;11232;51.748;19.390;2022-11-15T04:47:36;4.60;99.90
22132;DHT22;11232;51.748;19.390;2022-11-15T04:50:03;4.60;99.90
22132;DHT22;11232;51.748;19.390;2022-11-15T04:52:28;4.60;99.90
22132;DHT22;11232;51.748;19.390;2022-11-15T04:54:54;5.40;99.90
22132;DHT22;11232;51.748;19.390;2022-11-15T04:57:20;4.80;99.90
22132;DHT22;11232;51.748;19.390;2022-11-15T04:59:45;4.60;99.90
22132;DHT22;11232;51.748;19.390;2022-11-15T05:02:11;4.60;99.90
22132;DHT22;11232;51.748;19.390;2022-11-15T05:04:39;4.50;99.90
22132;DHT22;11232;51.748;19.390;2022-11-15T05:07:05;4.70;99.90
22132;DHT22;11232;51.748;19.390;2022-11-15T05:09:30;5.40;99.90
22132;DHT22;11232;51.748;19.390;2022-11-15T05:11:56;4.50;99.90
22132;DHT22;11232;51.748;19.390;2022-11-15T05:14:21;4.60;99.90
22132;DHT22;11232;51.748;19.390;2022-11-15T05:16:47;4.60;99.90
22132;DHT22;11232;51.748;19.390;2022-11-15T05:19:13;5.30;99.90
22132;DHT22;11232;51.748;19.390;2022-11-15T05:21:39;4.50;99.90
22132;DHT22;11232;51.748;19.390;2022-11-15T05:24:05;4.50;99.90
22132;DHT22;11232;51.748;19.390;2022-11-15T05:26:31;4.60;99.90
22132;DHT22;11232;51.748;19.390;2022-11-15T05:28:58;4.50;99.90
22132;DHT22;11232;51.748;19.390;2022-11-15T05:31:25;5.70;99.90
22132;DHT22;11232;51.748;19.390;2022-11-15T05:33:51;6.40;99.90
22132;DHT22;11232;51.748;19.390;2022-11-15T05:38:55;4.60;99.90
22132;DHT22;11232;51.748;19.390;2022-11-15T05:41:49;4.60;99.90
22132;DHT22;11232;51.748;19.390;2022-11-15T05:44:18;4.60;99.90
22132;DHT22;11232;51.748;19.390;2022-11-15T05:46:46;5.30;99.90
22132;DHT22;11232;51.748;19.390;2022-11-15T05:49:15;4.60;99.90
22132;DHT22;11232;51.748;19.390;2022-11-15T05:51:43;4.60;99.90
22132;DHT22;11232;51.748;19.390;2022-11-15T05:54:10;4.60;99.90
22132;DHT22;11232;51.748;19.390;2022-11-15T05:56:36;4.80;99.90
22132;DHT22;11232;51.748;19.390;2022-11-15T05:59:02;4.60;99.90
22132;DHT22;11232;51.748;19.390;2022-11-15T06:01:28;4.50;99.90
22132;DHT22;11232;51.748;19.390;2022-11-15T06:03:54;4.40;99.90
22132;DHT22;11232;51.748;19.390;2022-11-15T06:06:19;5.80;99.90
22132;DHT22;11232;51.748;19.390;2022-11-15T06:08:45;4.50;99.90
22132;DHT22;11232;51.748;19.390;2022-11-15T06:11:11;4.80;99.90
22132;DHT22;11232;51.748;19.390;2022-11-15T06:13:36;4.60;99.90
22132;DHT22;11232;51.748;19.390;2022-11-15T06:16:02;5.60;99.90
22132;DHT22;11232;51.748;19.390;2022-11-15T06:18:28;4.60;99.90
22132;DHT22;11232;51.748;19.390;2022-11-15T06:20:53;4.60;99.90
22132;DHT22;11232;51.748;19.390;2022-11-15T06:23:23;4.60;99.90
22132;DHT22;11232;51.748;19.390;2022-11-15T06:25:48;4.60;99.90
22132;DHT22;11232;51.748;19.390;2022-11-15T06:28:14;4.50;99.90
22132;DHT22;11232;51.748;19.390;2022-11-15T06:30:40;4.50;99.90
22132;DHT22;11232;51.748;19.390;2022-11-15T06:33:05;4.80;99.90
22132;DHT22;11232;51.748;19.390;2022-11-15T06:35:33;4.60;99.90
22132;DHT22;11232;51.748;19.390;2022-11-15T06:38:07;4.70;99.90
22132;DHT22;11232;51.748;19.390;2022-11-15T06:40:34;4.60;99.90
22132;DHT22;11232;51.748;19.390;2022-11-15T06:43:00;4.70;99.90
22132;DHT22;11232;51.748;19.390;2022-11-15T06:45:26;4.70;99.90
22132;DHT22;11232;51.748;19.390;2022-11-15T06:47:52;4.70;99.90
22132;DHT22;11232;51.748;19.390;2022-11-15T06:50:17;4.80;99.90
22132;DHT22;11232;51.748;19.390;2022-11-15T06:52:43;4.60;99.90
22132;DHT22;11232;51.748;19.390;2022-11-15T06:55:08;4.70;99.90
22132;DHT22;11232;51.748;19.390;2022-11-15T06:57:35;5.30;99.90
22132;DHT22;11232;51.748;19.390;2022-11-15T07:00:01;4.80;99.90
22132;DHT22;11232;51.748;19.390;2022-11-15T07:02:27;4.90;99.90
22132;DHT22;11232;51.748;19.390;2022-11-15T07:04:52;5.20;99.90
22132;DHT22;11232;51.748;19.390;2022-11-15T07:07:18;5.00;99.90
22132;DHT22;11232;51.748;19.390;2022-11-15T07:09:43;4.90;99.90
22132;DHT22;11232;51.748;19.390;2022-11-15T07:12:09;5.00;99.90
22132;DHT22;11232;51.748;19.390;2022-11-15T07:14:35;4.90;99.90
22132;DHT22;11232;51.748;19.390;2022-11-15T07:17:03;5.00;99.90
22132;DHT22;11232;51.748;19.390;2022-11-15T07:19:29;5.10;99.90
22132;DHT22;11232;51.748;19.390;2022-11-15T07:21:54;5.20;99.90
22132;DHT22;11232;51.748;19.390;2022-11-15T07:24:20;5.20;99.90
22132;DHT22;11232;51.748;19.390;2022-11-15T07:26:45;5.20;99.90
22132;DHT22;11232;51.748;19.390;2022-11-15T07:29:11;5.20;99.90
22132;DHT22;11232;51.748;19.390;2022-11-15T07:31:37;6.20;99.90
22132;DHT22;11232;51.748;19.390;2022-11-15T07:34:03;5.40;99.90
22132;DHT22;11232;51.748;19.390;2022-11-15T07:36:28;5.30;99.90
22132;DHT22;11232;51.748;19.390;2022-11-15T07:38:54;5.60;99.90
22132;DHT22;11232;51.748;19.390;2022-11-15T07:41:20;6.10;99.90
22132;DHT22;11232;51.748;19.390;2022-11-15T07:43:45;5.70;99.90
22132;DHT22;11232;51.748;19.390;2022-11-15T07:46:11;5.60;99.90
22132;DHT22;11232;51.748;19.390;2022-11-15T07:48:37;6.30;99.90
22132;DHT22;11232;51.748;19.390;2022-11-15T07:51:05;5.80;99.90
22132;DHT22;11232;51.748;19.390;2022-11-15T07:53:31;6.00;99.90
22132;DHT22;11232;51.748;19.390;2022-11-15T07:55:57;6.10;99.90
22132;DHT22;11232;51.748;19.390;2022-11-15T07:58:23;6.10;99.90
22132;DHT22;11232;51.748;19.390;2022-11-15T08:00:48;6.40;99.90
22132;DHT22;11232;51.748;19.390;2022-11-15T08:03:16;6.80;99.90
22132;DHT22;11232;51.748;19.390;2022-11-15T08:05:42;8.20;99.90
22132;DHT22;11232;51.748;19.390;2022-11-15T08:08:10;7.20;99.90
22132;DHT22;11232;51.748;19.390;2022-11-15T08:10:36;7.50;99.90
22132;DHT22;11232;51.748;19.390;2022-11-15T08:13:09;8.70;99.90
22132;DHT22;11232;51.748;19.390;2022-11-15T08:15:35;7.70;99.90
22132;DHT22;11232;51.748;19.390;2022-11-15T08:18:04;8.10;99.90
22132;DHT22;11232;51.748;19.390;2022-11-15T08:20:31;8.40;99.90
22132;DHT22;11232;51.748;19.390;2022-11-15T08:22:58;8.50;99.90
22132;DHT22;11232;51.748;19.390;2022-11-15T08:25:25;8.00;99.90
22132;DHT22;11232;51.748;19.390;2022-11-15T08:27:59;9.90;99.90
22132;DHT22;11232;51.748;19.390;2022-11-15T08:30:26;9.60;99.90
22132;DHT22;11232;51.748;19.390;2022-11-15T08:32:53;12.00;99.90
22132;DHT22;11232;51.748;19.390;2022-11-15T08:35:20;11.80;99.90
22132;DHT22;11232;51.748;19.390;2022-11-15T08:37:46;13.00;99.90
22132;DHT22;11232;51.748;19.390;2022-11-15T08:40:12;13.70;99.90
22132;DHT22;11232;51.748;19.390;2022-11-15T08:42:39;15.30;99.90
22132;DHT22;11232;51.748;19.390;2022-11-15T08:45:06;17.00;99.90
22132;DHT22;11232;51.748;19.390;2022-11-15T08:47:32;17.60;99.90
22132;DHT22;11232;51.748;19.390;2022-11-15T08:49:58;18.20;98.00
22132;DHT22;11232;51.748;19.390;2022-11-15T08:52:24;19.00;94.90
22132;DHT22;11232;51.748;19.390;2022-11-15T08:54:50;19.30;94.00
22132;DHT22;11232;51.748;19.390;2022-11-15T08:57:15;19.80;91.80
22132;DHT22;11232;51.748;19.390;2022-11-15T08:59:41;20.40;90.60
22132;DHT22;11232;51.748;19.390;2022-11-15T09:02:12;21.30;88.20
22132;DHT22;11232;51.748;19.390;2022-11-15T09:04:42;21.40;85.70
22132;DHT22;11232;51.748;19.390;2022-11-15T09:07:10;20.90;83.00
22132;DHT22;11232;51.748;19.390;2022-11-15T09:09:35;20.30;86.90
22132;DHT22;11232;51.748;19.390;2022-11-15T09:12:02;20.80;86.20
22132;DHT22;11232;51.748;19.390;2022-11-15T09:14:28;21.40;85.10
22132;DHT22;11232;51.748;19.390;2022-11-15T09:16:53;22.10;84.20
22132;DHT22;11232;51.748;19.390;2022-11-15T09:19:19;22.50;79.80
22132;DHT22;11232;51.748;19.390;2022-11-15T09:21:44;21.00;85.80
22132;DHT22;11232;51.748;19.390;2022-11-15T09:24:10;21.60;84.50
22132;DHT22;11232;51.748;19.390;2022-11-15T09:26:36;22.80;81.20
22132;DHT22;11232;51.748;19.390;2022-11-15T09:29:01;23.20;78.40
22132;DHT22;11232;51.748;19.390;2022-11-15T09:31:27;23.60;76.30
22132;DHT22;11232;51.748;19.390;2022-11-15T09:33:54;23.70;76.10
22132;DHT22;11232;51.748;19.390;2022-11-15T09:36:20;24.00;74.60
22132;DHT22;11232;51.748;19.390;2022-11-15T09:38:45;24.50;73.90
22132;DHT22;11232;51.748;19.390;2022-11-15T09:49:43;25.30;69.10
22132;DHT22;11232;51.748;19.390;2022-11-15T09:52:10;25.00;69.70
22132;DHT22;11232;51.748;19.390;2022-11-15T09:54:38;23.90;71.90
22132;DHT22;11232;51.748;19.390;2022-11-15T10:05:18;24.00;71.40
22132;DHT22;11232;51.748;19.390;2022-11-15T10:08:16;24.30;68.90
22132;DHT22;11232;51.748;19.390;2022-11-15T10:10:48;22.70;72.60
22132;DHT22;11232;51.748;19.390;2022-11-15T10:13:31;23.00;73.80
22132;DHT22;11232;51.748;19.390;2022-11-15T10:21:21;23.10;72.70
22132;DHT22;11232;51.748;19.390;2022-11-15T10:23:48;25.10;70.00
22132;DHT22;11232;51.748;19.390;2022-11-15T10:26:16;23.30;72.80
22132;DHT22;11232;51.748;19.390;2022-11-15T10:28:42;24.70;69.90
22132;DHT22;11232;51.748;19.390;2022-11-15T10:31:23;23.90;68.90
22132;DHT22;11232;51.748;19.390;2022-11-15T10:33:49;22.90;71.30
22132;DHT22;11232;51.748;19.390;2022-11-15T10:36:21;23.90;70.60
22132;DHT22;11232;51.748;19.390;2022-11-15T10:43:43;24.60;68.50
22132;DHT22;11232;51.748;19.390;2022-11-15T10:46:20;24.90;68.50
22132;DHT22;11232;51.748;19.390;2022-11-15T10:51:45;26.40;64.50
22132;DHT22;11232;51.748;19.390;2022-11-15T10:54:12;26.20;65.30
22132;DHT22;11232;51.748;19.390;2022-11-15T10:56:41;26.40;64.10
22132;DHT22;11232;51.748;19.390;2022-11-15T10:59:16;26.60;64.40
22132;DHT22;11232;51.748;19.390;2022-11-15T11:01:47;26.50;64.30
22132;DHT22;11232;51.748;19.390;2022-11-15T11:04:13;26.70;63.60
22132;DHT22;11232;51.748;19.390;2022-11-15T11:06:57;27.50;63.00
22132;DHT22;11232;51.748;19.390;2022-11-15T11:09:35;27.30;62.50
22132;DHT22;11232;51.748;19.390;2022-11-15T11:12:03;26.70;62.50
22132;DHT22;11232;51.748;19.390;2022-11-15T11:14:30;25.80;64.80
22132;DHT22;11232;51.748;19.390;2022-11-15T11:17:08;25.90;64.70
22132;DHT22;11232;51.748;19.390;2022-11-15T11:20:01;26.20;64.70
22132;DHT22;11232;51.748;19.390;2022-11-15T11:25:33;26.60;64.40
22132;DHT22;11232;51.748;19.390;2022-11-15T11:29:01;26.60;63.40
22132;DHT22;11232;51.748;19.390;2022-11-15T11:42:24;28.80;60.10
22132;DHT22;11232;51.748;19.390;2022-11-15T11:47:40;28.90;58.90
22132;DHT22;11232;51.748;19.390;2022-11-15T11:50:19;28.50;58.70
22132;DHT22;11232;51.748;19.390;2022-11-15T11:58:25;28.80;57.50
22132;DHT22;11232;51.748;19.390;2022-11-15T12:00:56;28.00;59.70
22132;DHT22;11232;51.748;19.390;2022-11-15T12:03:46;28.00;60.60
22132;DHT22;11232;51.748;19.390;2022-11-15T12:06:41;28.80;60.00
22132;DHT22;11232;51.748;19.390;2022-11-15T12:09:20;27.80;60.30
22132;DHT22;11232;51.748;19.390;2022-11-15T12:16:59;27.50;59.70
22132;DHT22;11232;51.748;19.390;2022-11-15T12:19:25;27.30;60.40
22132;DHT22;11232;51.748;19.390;2022-11-15T12:24:41;26.50;61.60
22132;DHT22;11232;51.748;19.390;2022-11-15T12:27:31;26.80;61.40
22132;DHT22;11232;51.748;19.390;2022-11-15T12:30:14;26.90;62.30
22132;DHT22;11232;51.748;19.390;2022-11-15T12:32:55;27.10;62.40
22132;DHT22;11232;51.748;19.390;2022-11-15T12:35:30;27.40;61.10
22132;DHT22;11232;51.748;19.390;2022-11-15T12:37:57;27.70;61.00
22132;DHT22;11232;51.748;19.390;2022-11-15T12:43:54;27.50;61.20
22132;DHT22;11232;51.748;19.390;2022-11-15T12:48:58;26.80;61.70
22132;DHT22;11232;51.748;19.390;2022-11-15T13:17:47;24.80;66.80
22132;DHT22;11232;51.748;19.390;2022-11-15T13:23:10;23.80;68.30
22132;DHT22;11232;51.748;19.390;2022-11-15T13:28:33;22.50;72.20
22132;DHT22;11232;51.748;19.390;2022-11-15T13:31:03;22.40;72.40
22132;DHT22;11232;51.748;19.390;2022-11-15T13:33:39;22.10;73.70
22132;DHT22;11232;51.748;19.390;2022-11-15T13:36:24;21.90;74.40
22132;DHT22;11232;51.748;19.390;2022-11-15T13:39:05;21.40;75.60
22132;DHT22;11232;51.748;19.390;2022-11-15T13:41:34;21.00;76.80
22132;DHT22;11232;51.748;19.390;2022-11-15T13:44:02;20.60;77.80
22132;DHT22;11232;51.748;19.390;2022-11-15T13:46:32;20.00;79.50
22132;DHT22;11232;51.748;19.390;2022-11-15T13:49:08;19.70;81.30
22132;DHT22;11232;51.748;19.390;2022-11-15T13:51:50;19.00;83.10
22132;DHT22;11232;51.748;19.390;2022-11-15T13:57:46;17.80;88.20
22132;DHT22;11232;51.748;19.390;2022-11-15T14:01:00;17.30;90.10
22132;DHT22;11232;51.748;19.390;2022-11-15T14:03:29;17.00;91.40
22132;DHT22;11232;51.748;19.390;2022-11-15T14:06:13;16.40;93.10
22132;DHT22;11232;51.748;19.390;2022-11-15T14:09:00;16.10;94.30
22132;DHT22;11232;51.748;19.390;2022-11-15T14:11:26;15.70;95.60
22132;DHT22;11232;51.748;19.390;2022-11-15T14:16:38;15.20;97.70
22132;DHT22;11232;51.748;19.390;2022-11-15T14:19:05;15.00;98.60
22132;DHT22;11232;51.748;19.390;2022-11-15T14:21:32;14.80;99.70
22132;DHT22;11232;51.748;19.390;2022-11-15T14:24:17;14.60;99.90
22132;DHT22;11232;51.748;19.390;2022-11-15T14:26:43;14.30;99.90
22132;DHT22;11232;51.748;19.390;2022-11-15T14:29:28;14.10;99.90
22132;DHT22;11232;51.748;19.390;2022-11-15T14:32:12;13.90;99.90
22132;DHT22;11232;51.748;19.390;2022-11-15T14:34:38;13.50;99.90
22132;DHT22;11232;51.748;19.390;2022-11-15T14:37:03;13.10;99.90
22132;DHT22;11232;51.748;19.390;2022-11-15T14:39:29;13.00;99.90
22132;DHT22;11232;51.748;19.390;2022-11-15T14:41:55;12.80;99.90
22132;DHT22;11232;51.748;19.390;2022-11-15T14:44:21;12.70;99.90
22132;DHT22;11232;51.748;19.390;2022-11-15T14:46:47;12.30;99.90
22132;DHT22;11232;51.748;19.390;2022-11-15T14:49:13;12.60;99.90
22132;DHT22;11232;51.748;19.390;2022-11-15T14:51:40;12.30;99.90
22132;DHT22;11232;51.748;19.390;2022-11-15T14:54:09;13.30;99.90
22132;DHT22;11232;51.748;19.390;2022-11-15T14:56:35;12.10;99.90
22132;DHT22;11232;51.748;19.390;2022-11-15T14:59:01;12.00;99.90
22132;DHT22;11232;51.748;19.390;2022-11-15T15:01:27;11.80;99.90
22132;DHT22;11232;51.748;19.390;2022-11-15T15:03:53;11.70;99.90
22132;DHT22;11232;51.748;19.390;2022-11-15T15:06:22;11.60;99.90
22132;DHT22;11232;51.748;19.390;2022-11-15T15:08:48;11.50;99.90
22132;DHT22;11232;51.748;19.390;2022-11-15T15:11:30;11.40;99.90
22132;DHT22;11232;51.748;19.390;2022-11-15T15:13:56;11.30;99.90
22132;DHT22;11232;51.748;19.390;2022-11-15T15:16:26;11.20;99.90
22132;DHT22;11232;51.748;19.390;2022-11-15T15:18:52;11.10;99.90
22132;DHT22;11232;51.748;19.390;2022-11-15T15:21:26;11.60;99.90
22132;DHT22;11232;51.748;19.390;2022-11-15T15:23:53;11.00;99.90
22132;DHT22;11232;51.748;19.390;2022-11-15T15:26:22;11.00;99.90
22132;DHT22;11232;51.748;19.390;2022-11-15T15:28:48;10.80;99.90
22132;DHT22;11232;51.748;19.390;2022-11-15T15:31:16;10.70;99.90
22132;DHT22;11232;51.748;19.390;2022-11-15T15:33:42;10.60;99.90
22132;DHT22;11232;51.748;19.390;2022-11-15T15:36:12;10.50;99.90
22132;DHT22;11232;51.748;19.390;2022-11-15T15:38:37;10.40;99.90
22132;DHT22;11232;51.748;19.390;2022-11-15T15:41:09;10.30;99.90
22132;DHT22;11232;51.748;19.390;2022-11-15T15:43:35;10.20;99.90
22132;DHT22;11232;51.748;19.390;2022-11-15T15:46:01;10.20;99.90
22132;DHT22;11232;51.748;19.390;2022-11-15T15:48:26;10.10;99.90
22132;DHT22;11232;51.748;19.390;2022-11-15T15:50:52;10.10;99.90
22132;DHT22;11232;51.748;19.390;2022-11-15T15:53:17;10.10;99.90
22132;DHT22;11232;51.748;19.390;2022-11-15T15:55:43;9.90;99.90
22132;DHT22;11232;51.748;19.390;2022-11-15T15:58:09;10.00;99.90
22132;DHT22;11232;51.748;19.390;2022-11-15T16:00:36;10.30;99.90
22132;DHT22;11232;51.748;19.390;2022-11-15T16:03:02;9.80;99.90
22132;DHT22;11232;51.748;19.390;2022-11-15T16:05:28;9.70;99.90
22132;DHT22;11232;51.748;19.390;2022-11-15T16:07:53;9.60;99.90
22132;DHT22;11232;51.748;19.390;2022-11-15T16:10:26;9.60;99.90
22132;DHT22;11232;51.748;19.390;2022-11-15T16:12:53;9.50;99.90
22132;DHT22;11232;51.748;19.390;2022-11-15T16:15:20;9.40;99.90
22132;DHT22;11232;51.748;19.390;2022-11-15T16:17:56;9.40;99.90
22132;DHT22;11232;51.748;19.390;2022-11-15T16:20:34;9.30;99.90
22132;DHT22;11232;51.748;19.390;2022-11-15T16:23:02;9.30;99.90
22132;DHT22;11232;51.748;19.390;2022-11-15T16:25:28;9.20;99.90
22132;DHT22;11232;51.748;19.390;2022-11-15T16:27:53;9.20;99.90
22132;DHT22;11232;51.748;19.390;2022-11-15T16:30:21;9.10;99.90
22132;DHT22;11232;51.748;19.390;2022-11-15T16:32:47;9.20;99.90
22132;DHT22;11232;51.748;19.390;2022-11-15T16:35:14;9.00;99.90
22132;DHT22;11232;51.748;19.390;2022-11-15T16:37:40;9.00;99.90
22132;DHT22;11232;51.748;19.390;2022-11-15T16:40:26;8.90;99.90
22132;DHT22;11232;51.748;19.390;2022-11-15T16:42:52;8.90;99.90
22132;DHT22;11232;51.748;19.390;2022-11-15T16:45:17;8.80;99.90
22132;DHT22;11232;51.748;19.390;2022-11-15T16:47:43;8.70;99.90
22132;DHT22;11232;51.748;19.390;2022-11-15T16:50:26;8.80;99.90
22132;DHT22;11232;51.748;19.390;2022-11-15T16:52:56;8.60;99.90
22132;DHT22;11232;51.748;19.390;2022-11-15T16:55:25;8.50;99.90
22132;DHT22;11232;51.748;19.390;2022-11-15T16:57:52;8.40;99.90
22132;DHT22;11232;51.748;19.390;2022-11-15T17:00:18;8.40;99.90
22132;DHT22;11232;51.748;19.390;2022-11-15T17:02:45;8.30;99.90
22132;DHT22;11232;51.748;19.390;2022-11-15T17:05:12;8.30;99.90
22132;DHT22;11232;51.748;19.390;2022-11-15T17:07:39;8.20;99.90
22132;DHT22;11232;51.748;19.390;2022-11-15T17:10:05;8.20;99.90
22132;DHT22;11232;51.748;19.390;2022-11-15T17:12:33;8.20;99.90
22132;DHT22;11232;51.748;19.390;2022-11-15T17:14:58;8.10;99.90
22132;DHT22;11232;51.748;19.390;2022-11-15T17:17:24;8.10;99.90
22132;DHT22;11232;51.748;19.390;2022-11-15T17:19:51;8.10;99.90
22132;DHT22;11232;51.748;19.390;2022-11-15T17:22:18;8.00;99.90
22132;DHT22;11232;51.748;19.390;2022-11-15T17:24:43;7.90;99.90
22132;DHT22;11232;51.748;19.390;2022-11-15T17:27:09;7.90;99.90
22132;DHT22;11232;51.748;19.390;2022-11-15T17:29:35;7.80;99.90
22132;DHT22;11232;51.748;19.390;2022-11-15T17:32:00;7.90;99.90
22132;DHT22;11232;51.748;19.390;2022-11-15T17:34:26;7.90;99.90
22132;DHT22;11232;51.748;19.390;2022-11-15T17:36:51;7.70;99.90
22132;DHT22;11232;51.748;19.390;2022-11-15T17:39:17;7.60;99.90
22132;DHT22;11232;51.748;19.390;2022-11-15T17:41:45;7.60;99.90
22132;DHT22;11232;51.748;19.390;2022-11-15T17:44:11;7.60;99.90
22132;DHT22;11232;51.748;19.390;2022-11-15T17:46:36;7.50;99.90
22132;DHT22;11232;51.748;19.390;2022-11-15T17:49:02;7.60;99.90
22132;DHT22;11232;51.748;19.390;2022-11-15T17:51:27;7.50;99.90
22132;DHT22;11232;51.748;19.390;2022-11-15T17:53:54;7.50;99.90